Aguirre, PR

4:27 AM AST en Noviembre 23, 2014 (GMT -0400)
Manejo de Emergencias Salinas | Change Station
CLOSE
Current Station
Estación meteorológica personal
Location: Salinas, PR
Altura: 15 ft
Estaciones meteorológicas cercanas

Alt 15 ft 17.98 °N, 66.30 °W | Updated 19 minutes ago

Partly Cloudy
Parcialmente nublado
76.6 ° F
Sensación térmica 78 ° F
N
0.0
Viento Variable Viento desde Norte
Gusts 0.0 mph

Hoy
Alta -- | Baja -- ° F
--% Posibilidad de precipitaciones
Ayer
Alta -- | Baja -- ° F
Precip. -- pul
6:35 AM 5:47 PM
Luna nueva, 1% visible
Presión 29.93 pul
Visibilidad 8.0 Millas
Nubes Baja 3000 ft
Índice de calor 78 ° F
Punto de rocío 72 ° F
Humedad 87%
Precipitaciones -999.00 pul
Espesor de la nieve No disponible.
UV 0 de una escala de 12
Polen No disponible.
Calidad del aire No disponible.
Flu Activity No disponible.
METAR TJPS 230750Z 07005KT 8SM FEW030 24/22 A2993

More Conditions Fewer Conditions

Presión 29.93 pul
Visibilidad 8.0 Millas
Nubes Baja 3000 ft
Índice de calor 78 ° F
Punto de rocío 72 ° F
Humedad 87%
Precipitaciones -999.00 pul
Espesor de la nieve No disponible.
UV 0 de una escala de 12
Polen No disponible.
Calidad del aire No disponible.
Flu Activity No disponible.
METAR TJPS 230750Z 07005KT 8SM FEW030 24/22 A2993

More Conditions Fewer Conditions

10-Day Weather Forecast

Almanac

Astronomía

Nov. 23, 2014 Salida Puesta
Hora real
Crepúsculo civil
Crepúsculo náutico
Crepúsculo astronómico
Luna
Horas de luz
Horas de luz
Tomorrow will be .
, % of the Moon is Illuminated

Extremos de hoy

Máximos del estado Bajos del estado

Community

WunderPhotos

Upload Photos

1,773,024 ¡fotos cargadas!

WunderBlogs® & News

Nearby

Calidad del aire

  Calidad del aire Índice AQ Contaminante
Not available.

Grosos de nieve

Estación Profundido Altura

Actividad de terremotos

Ciudad Distance Mag. Tiempo y dato
Magnitud mínima muestra es 2,5.

Temperaturas de aguas costeras

Lugar Temperatura

Estaciones meteorológicas cercanas